Weather at Cape Town International Airport

Public forecast

Using degrees Celsius for public forecast. Weather courtesy of forecast.io.

Current aviation weather report (METAR) for Cape Town International Airport

Retrieved 2021/02/27 23:00 UTC (8 minutes ago):

FACT 272300Z 17007KT CAVOK 20/14 Q1011 NOSIG

Aviation forecast (TAF) for Cape Town International Airport

Retrieved 2021/02/27 18:42 UTC (4 hours ago):

TAF TAF FACT 271730Z 2718/2824 15013KT CAVOK TX35/2812Z TN18/2804Z BECMG 2720/2722 VRB03KT BECMG 2811/2813 20015KT BECMG 2821/2823 34008KT